Página principal
METAR-TAF:

METAR-TAF

Aeroportos :

Valdez, Alasca, Estados Unidos

latitude: 61-08N, longitude: 146-16W, altura: 37 m

Observação actual do tempo

O boletim foi feito há 1 hora e 10 minutos, às 01:56 UTC
Vento 5 kt de sudoeste
Temperatura 18°C
Humidade 64%
Pressão 1021 hPa
Visibilidade: 16.1 km
Céu limpo

METAR: PAVD 170156Z 22005KT 10SM CLR 18/11 A3015 RMK AO2 SLP207 T01830106 $

Hora: 19:06 (03:06 UTC)

Previsão

O boletim foi feito há 3 horas e 45 minutos, às 23:21 UTC
Previsão válida de 17 às 00 UTC a 17 às 24 UTC
Vento 10 kt de oes-sudoeste
Visibilidade: 10 km
Céu limpo
A partir de 17 às 0600 UTC
Vento 5 kt de es-nordeste
Visibilidade: 10 km
Céu limpo

TAF: PAVD 162321Z 1700/1724 24010KT P6SM SKC FM170600 06005KT P6SM SKC

Observações e previsões do tempo de mais de 4000 aeroportos (mensagens METAR e TAF).

As estações disponíveis são os pontos amarelos e vermelhos sobre o mapa.

Mova o rato sobre o mapa para ver o nome da estação.

Depois clique no ponto para visualizar as observações e previsões meteorológicas.

Para alterar o mapa : clique nos botões verdes com uma cruz preta para aumentar o zoom; no botão verde com uma pitada de zoom; ou nas setas verdes para mapas adjacentes.


METAR-TAF: